Time;durP1;ratioP1;P1;durP2;ratioP2;P2;SDS_P1;SDS_P2;PMS_P1;PMS_P2;Temp;Humidity;BMP_temperature;BMP_pressure;BME280_temperature;BME280_humidity;BME280_pressure;Samples;Min_cycle;Max_cycle;Signal;HPM_P1;HPM_P2
2023/09/27 00:02:08;;;;;;;14.80;13.40;;;;;;;13.55;88.59;98393.81;4985597;28;23171;-77
2023/09/27 00:04:35;;;;;;;13.57;12.43;;;;;;;13.61;88.04;98396.53;4988322;28;20817;-77
2023/09/27 00:07:02;;;;;;;13.10;12.00;;;;;;;13.59;88.42;98389.63;4988299;28;20447;-77
2023/09/27 00:09:31;;;;;;;14.57;13.23;;;;;;;13.34;88.57;98354.94;4986000;28;20506;-77
2023/09/27 00:11:58;;;;;;;13.17;12.00;;;;;;;13.61;88.39;98382.94;4986189;28;20577;-77
2023/09/27 00:14:27;;;;;;;15.90;14.50;;;;;;;13.57;88.64;98394.44;4988197;28;20471;-77
2023/09/27 00:16:54;;;;;;;13.30;12.20;;;;;;;13.60;88.62;98388.56;4988015;28;20510;-77
2023/09/27 00:19:22;;;;;;;17.80;16.10;;;;;;;13.45;89.39;98400.50;4985616;28;20460;-77
2023/09/27 00:21:49;;;;;;;20.60;18.70;;;;;;;13.49;89.40;98394.66;4986634;28;20578;-77
2023/09/27 00:24:16;;;;;;;19.43;17.73;;;;;;;13.58;89.09;98405.09;4986402;28;20551;-77
2023/09/27 00:26:43;;;;;;;19.83;18.10;;;;;;;13.30;90.28;98408.09;4984607;28;20522;-77
2023/09/27 00:29:10;;;;;;;24.27;22.13;;;;;;;13.23;90.16;98396.38;4986748;28;20968;-77
2023/09/27 00:31:37;;;;;;;21.10;19.30;;;;;;;13.08;91.54;98393.81;4988407;28;20482;-77
2023/09/27 00:34:04;;;;;;;23.33;21.17;;;;;;;12.98;92.53;98392.59;4986735;28;20459;-77
2023/09/27 00:36:33;;;;;;;27.38;24.73;;;;;;;12.89;92.51;98402.81;4988482;28;20454;-77
2023/09/27 00:38:59;;;;;;;24.13;21.73;;;;;;;12.91;92.73;98397.19;4987606;28;20197;-77
2023/09/27 00:41:26;;;;;;;23.43;21.27;;;;;;;12.85;92.90;98390.69;4984620;28;20614;-77
2023/09/27 00:43:53;;;;;;;19.00;17.27;;;;;;;12.90;92.70;98384.63;4986659;28;20911;-77
2023/09/27 00:46:20;;;;;;;19.47;17.87;;;;;;;12.93;92.05;98384.22;4987169;28;20494;-77
2023/09/27 00:48:47;;;;;;;18.07;16.67;;;;;;;12.86;92.55;98378.78;4986946;28;20541;-77
2023/09/27 00:51:13;;;;;;;16.23;14.93;;;;;;;12.76;92.79;98387.34;4986190;28;21061;-77
2023/09/27 00:53:44;;;;;;;17.23;15.63;;;;;;;12.73;92.99;98384.19;4987332;28;20487;-77
2023/09/27 00:56:10;;;;;;;16.85;15.55;;;;;;;12.74;93.09;98386.69;4987480;28;20195;-77
2023/09/27 00:58:37;;;;;;;18.35;16.70;;;;;;;12.71;92.83;98387.13;4984273;28;20232;-77
2023/09/27 01:01:04;;;;;;;17.90;16.40;;;;;;;12.73;92.85;98386.91;4985347;28;20283;-77
2023/09/27 01:03:32;;;;;;;17.70;16.30;;;;;;;12.64;93.03;98388.19;4985658;28;20199;-76
2023/09/27 01:05:59;;;;;;;18.27;16.45;;;;;;;12.64;93.36;98393.59;4986428;28;20458;-77
2023/09/27 01:08:26;;;;;;;18.02;16.52;;;;;;;12.75;92.90;98395.69;4986989;28;20218;-77
2023/09/27 01:10:54;;;;;;;16.30;14.90;;;;;;;12.87;92.33;98398.63;4985332;28;20195;-76
2023/09/27 01:13:21;;;;;;;16.38;14.95;;;;;;;12.84;92.57;98399.88;4987500;28;20554;-77
2023/09/27 01:15:48;;;;;;;18.20;16.80;;;;;;;12.83;92.39;98398.22;4983979;28;20488;-77
2023/09/27 01:18:15;;;;;;;17.90;16.30;;;;;;;12.89;92.00;98396.53;4986712;28;20458;-77
2023/09/27 01:20:42;;;;;;;18.07;16.20;;;;;;;12.82;92.03;98401.97;4985564;28;20457;-77
2023/09/27 01:23:10;;;;;;;15.70;14.40;;;;;;;12.86;92.30;98397.78;4985868;28;20581;-77
2023/09/27 01:25:37;;;;;;;16.27;14.98;;;;;;;12.79;92.62;98395.06;4983432;28;20459;-77
2023/09/27 01:28:06;;;;;;;15.20;13.90;;;;;;;12.70;92.82;98390.88;4990001;28;20198;-77
2023/09/27 01:30:33;;;;;;;14.43;13.13;;;;;;;12.79;92.73;98389.63;4989880;28;20562;-76
2023/09/27 01:33:05;;;;;;;13.73;12.53;;;;;;;12.78;92.53;98382.53;4987295;28;20982;-77
2023/09/27 01:35:32;;;;;;;13.73;12.63;;;;;;;12.71;92.64;98392.53;4989123;28;20476;-77
2023/09/27 01:37:59;;;;;;;14.43;13.23;;;;;;;12.90;91.78;98381.91;4988600;28;20834;-77
2023/09/27 01:40:30;;;;;;;12.73;11.63;;;;;;;12.92;91.80;98404.28;4987038;28;20223;-77
2023/09/27 01:42:57;;;;;;;13.27;12.13;;;;;;;13.06;90.96;98405.94;4990369;28;20572;-77
2023/09/27 01:45:24;;;;;;;14.70;13.50;;;;;;;12.91;91.16;98408.03;4991484;28;20286;-77
2023/09/27 01:47:51;;;;;;;14.37;13.17;;;;;;;12.89;91.36;98400.09;4991057;28;20515;-77
2023/09/27 01:50:19;;;;;;;13.77;12.70;;;;;;;12.84;91.74;98396.34;4988615;28;20524;-77
2023/09/27 01:52:46;;;;;;;15.07;13.60;;;;;;;12.76;91.78;98398.19;4989682;28;20501;-77
2023/09/27 01:55:13;;;;;;;15.93;14.57;;;;;;;12.50;93.05;98398.16;4990232;28;20199;-77
2023/09/27 01:57:41;;;;;;;15.02;13.73;;;;;;;12.45;93.42;98404.19;4987102;28;20552;-77
2023/09/27 02:00:11;;;;;;;16.58;14.98;;;;;;;12.49;92.87;98398.38;4988688;28;20225;-77
2023/09/27 02:02:38;;;;;;;16.60;15.03;;;;;;;12.37;93.46;98412.53;4989416;28;20309;-77
2023/09/27 02:05:06;;;;;;;16.03;14.43;;;;;;;12.32;93.11;98408.78;4989643;28;20501;-77
2023/09/27 02:07:33;;;;;;;17.90;16.50;;;;;;;12.20;93.81;98416.66;4987221;28;20874;-77
2023/09/27 02:09:59;;;;;;;19.60;18.00;;;;;;;12.17;94.59;98411.63;4989424;28;20549;-77
2023/09/27 02:12:26;;;;;;;17.70;16.10;;;;;;;12.07;95.05;98416.59;4987734;28;20536;-76
2023/09/27 02:14:54;;;;;;;18.08;16.58;;;;;;;12.17;94.86;98424.38;4989364;28;20474;-76
2023/09/27 02:17:21;;;;;;;18.45;16.95;;;;;;;12.20;94.87;98421.25;4988980;28;20200;-76
2023/09/27 02:19:47;;;;;;;19.40;17.70;;;;;;;12.18;95.28;98412.47;4988070;28;20206;-77
2023/09/27 02:22:15;;;;;;;19.53;17.90;;;;;;;12.16;95.18;98414.56;4990100;28;20233;-77
2023/09/27 02:24:42;;;;;;;18.55;16.95;;;;;;;12.21;95.18;98428.34;4988989;28;20459;-77
2023/09/27 02:27:10;;;;;;;17.27;15.85;;;;;;;12.21;95.47;98410.19;4991521;28;20298;-77
2023/09/27 02:29:38;;;;;;;17.80;16.20;;;;;;;12.05;95.68;98408.66;4987128;28;20221;-76
2023/09/27 02:32:07;;;;;;;18.15;16.55;;;;;;;12.05;95.74;98408.66;4987044;28;20594;-77
2023/09/27 02:34:33;;;;;;;17.85;16.17;;;;;;;12.13;95.65;98409.53;4989377;28;20226;-76
2023/09/27 02:37:00;;;;;;;18.60;17.00;;;;;;;12.07;95.47;98406.56;4989528;28;20217;-76
2023/09/27 02:39:28;;;;;;;19.92;18.13;;;;;;;12.09;95.14;98403.66;4989462;28;21054;-76
2023/09/27 02:41:56;;;;;;;19.23;17.48;;;;;;;12.03;95.30;98399.88;4988960;28;20225;-77
2023/09/27 02:44:23;;;;;;;18.52;16.70;;;;;;;12.09;95.37;98404.50;4988883;28;20282;-76
2023/09/27 02:46:51;;;;;;;19.73;18.02;;;;;;;12.11;95.29;98404.31;4986513;28;20211;-77
2023/09/27 02:49:19;;;;;;;17.40;15.90;;;;;;;12.07;95.36;98392.19;4987141;28;20636;-77
2023/09/27 02:51:47;;;;;;;20.00;18.20;;;;;;;12.06;95.17;98404.06;4989516;28;20356;-77
2023/09/27 02:54:14;;;;;;;18.27;16.80;;;;;;;12.15;94.98;98397.44;4988642;28;20282;-76
2023/09/27 02:56:41;;;;;;;19.10;17.30;;;;;;;11.97;95.86;98394.44;4990026;28;20218;-76
2023/09/27 02:59:09;;;;;;;19.83;17.90;;;;;;;12.01;96.07;98385.72;4987897;28;20282;-77
2023/09/27 03:01:35;;;;;;;19.00;17.42;;;;;;;11.96;96.19;98390.06;4985697;28;20266;-76
2023/09/27 03:04:02;;;;;;;18.98;17.45;;;;;;;12.01;95.58;98371.31;4988939;28;20242;-76
2023/09/27 03:06:30;;;;;;;16.30;14.85;;;;;;;11.98;95.99;98391.53;4989362;28;20218;-76
2023/09/27 03:08:57;;;;;;;20.23;18.43;;;;;;;11.96;95.97;98387.34;4987850;28;20603;-76
2023/09/27 03:11:24;;;;;;;19.75;18.05;;;;;;;11.91;95.96;98390.66;4988190;28;20474;-76
2023/09/27 03:13:51;;;;;;;18.15;16.65;;;;;;;12.03;95.66;98389.03;4987673;28;20322;-76
2023/09/27 03:16:18;;;;;;;16.67;15.23;;;;;;;12.04;95.03;98390.69;4989448;28;20297;-76
2023/09/27 03:18:44;;;;;;;17.83;16.43;;;;;;;12.00;94.90;98389.47;4985271;28;21061;-76
2023/09/27 03:21:12;;;;;;;17.13;15.63;;;;;;;12.06;94.27;98393.22;4987429;28;20484;-76
2023/09/27 03:23:40;;;;;;;19.42;17.75;;;;;;;11.83;94.96;98393.53;4989901;28;20195;-76
2023/09/27 03:26:08;;;;;;;18.77;17.08;;;;;;;11.94;94.58;98395.69;4987712;28;20199;-76
2023/09/27 03:28:35;;;;;;;20.38;18.30;;;;;;;11.59;96.09;98394.03;4986283;28;20287;-76
2023/09/27 03:31:03;;;;;;;20.17;18.38;;;;;;;11.68;96.10;98390.13;4988838;28;20294;-76
2023/09/27 03:33:30;;;;;;;20.05;18.35;;;;;;;11.80;95.71;98383.09;4985976;28;20241;-76
2023/09/27 03:35:57;;;;;;;18.95;17.25;;;;;;;11.70;95.95;98396.16;4988230;28;20205;-76
2023/09/27 03:38:24;;;;;;;20.77;18.88;;;;;;;11.73;96.54;98393.88;4987912;28;20322;-76
2023/09/27 03:40:52;;;;;;;20.80;18.90;;;;;;;11.70;96.42;98396.97;4987767;28;20205;-76
2023/09/27 03:43:19;;;;;;;20.10;18.40;;;;;;;11.69;96.45;98394.50;4987441;28;20293;-76
2023/09/27 03:45:46;;;;;;;20.27;18.48;;;;;;;11.71;96.31;98390.53;4988856;28;20234;-76
2023/09/27 03:48:13;;;;;;;18.17;16.52;;;;;;;11.62;96.41;98399.03;4988360;28;20232;-76
2023/09/27 03:50:40;;;;;;;16.98;15.35;;;;;;;11.75;95.90;98408.06;4984873;28;20745;-76
2023/09/27 03:53:06;;;;;;;19.73;17.92;;;;;;;11.69;95.80;98413.47;4984665;28;20341;-76
2023/09/27 03:55:33;;;;;;;18.60;16.80;;;;;;;11.78;95.37;98409.56;4982883;28;20282;-76
2023/09/27 03:58:02;;;;;;;18.55;16.95;;;;;;;11.70;95.59;98409.69;4985571;28;20297;-76
2023/09/27 04:00:29;;;;;;;18.75;17.15;;;;;;;11.74;95.27;98419.13;4987082;28;20297;-76
2023/09/27 04:02:56;;;;;;;18.30;16.67;;;;;;;11.69;95.56;98408.91;4986773;28;20235;-76
2023/09/27 04:05:26;;;;;;;19.02;17.33;;;;;;;11.56;96.20;98413.38;4987729;28;20286;-76
2023/09/27 04:07:53;;;;;;;18.10;16.60;;;;;;;11.45;96.68;98412.91;4988271;28;20203;-76
2023/09/27 04:10:19;;;;;;;20.38;18.42;;;;;;;11.41;97.00;98406.19;4988273;28;20199;-76
2023/09/27 04:12:47;;;;;;;19.67;17.77;;;;;;;11.27;97.77;98401.75;4984990;28;20223;-76
2023/09/27 04:15:16;;;;;;;19.27;17.30;;;;;;;11.31;97.68;98408.44;4985905;28;20199;-77
2023/09/27 04:17:42;;;;;;;18.45;16.75;;;;;;;11.29;97.66;98413.22;4976448;28;20252;-76
2023/09/27 04:20:14;;;;;;;19.73;17.75;;;;;;;11.27;97.62;98414.44;4974197;28;20214;-76
2023/09/27 04:22:43;;;;;;;16.83;15.43;;;;;;;11.15;97.96;98406.00;4986513;28;20231;-76
2023/09/27 04:25:12;;;;;;;16.23;14.93;;;;;;;11.20;97.75;98419.81;4985345;28;20218;-76
2023/09/27 04:27:40;;;;;;;18.10;16.40;;;;;;;11.15;97.81;98424.97;4986944;28;20203;-75
2023/09/27 04:30:11;;;;;;;18.92;17.23;;;;;;;11.09;97.34;98413.06;4986383;28;20203;-76
2023/09/27 04:32:40;;;;;;;17.98;16.25;;;;;;;11.14;97.59;98415.19;4986007;28;20215;-77
2023/09/27 04:35:09;;;;;;;17.77;16.25;;;;;;;11.11;97.52;98412.84;4982940;28;20207;-77
2023/09/27 04:37:36;;;;;;;17.90;16.38;;;;;;;11.15;97.58;98418.72;4989015;28;20238;-76
2023/09/27 04:40:06;;;;;;;17.48;15.93;;;;;;;11.19;97.26;98420.00;4988293;28;20301;-77
2023/09/27 04:42:33;;;;;;;16.38;14.98;;;;;;;11.23;97.10;98427.56;4988426;28;20218;-77
2023/09/27 04:45:00;;;;;;;17.23;15.82;;;;;;;11.18;97.30;98432.72;4985848;28;20935;-76
2023/09/27 04:47:27;;;;;;;18.20;16.50;;;;;;;11.16;97.50;98428.53;4984814;28;20626;-77
2023/09/27 04:49:55;;;;;;;17.15;15.70;;;;;;;11.20;97.31;98438.78;4967830;28;20295;-76
2023/09/27 04:52:22;;;;;;;19.67;16.55;;;;;;;11.16;97.34;98445.63;4984422;28;20837;-77
2023/09/27 04:54:49;;;;;;;18.88;16.98;;;;;;;11.23;97.36;98446.50;4988652;28;20322;-76
2023/09/27 04:57:16;;;;;;;18.08;16.48;;;;;;;11.20;97.47;98446.91;4986455;28;20296;-74
2023/09/27 04:59:43;;;;;;;19.67;17.75;;;;;;;11.04;97.92;98448.03;4990136;28;20732;-75
2023/09/27 05:02:10;;;;;;;18.63;17.02;;;;;;;11.04;98.35;98448.03;4991388;28;20254;-74
2023/09/27 05:04:37;;;;;;;17.90;16.30;;;;;;;10.94;98.11;98425.03;4991448;28;20287;-73
2023/09/27 05:07:05;;;;;;;17.75;16.15;;;;;;;11.14;98.23;98444.97;4987485;28;20234;-73
2023/09/27 05:09:32;;;;;;;18.33;16.85;;;;;;;11.04;98.87;98447.19;4992485;28;20203;-73
2023/09/27 05:11:58;;;;;;;17.80;16.20;;;;;;;11.14;98.56;98452.25;4991940;28;20298;-74
2023/09/27 05:14:25;;;;;;;18.10;16.42;;;;;;;11.24;97.79;98459.03;4989934;28;20266;-77
2023/09/27 05:16:52;;;;;;;18.88;17.13;;;;;;;11.25;97.76;98462.56;4990047;28;20596;-78
2023/09/27 05:19:19;;;;;;;18.10;16.30;;;;;;;11.29;97.61;98475.53;4990477;28;20199;-79
2023/09/27 05:21:45;;;;;;;14.93;13.82;;;;;;;11.43;96.25;98485.44;4992033;28;20775;-78
2023/09/27 05:24:14;;;;;;;15.05;13.57;;;;;;;11.48;95.77;98489.44;4989881;28;20286;-78
2023/09/27 05:26:40;;;;;;;15.15;13.95;;;;;;;11.64;94.44;98490.00;4991530;28;20235;-79
2023/09/27 05:29:13;;;;;;;14.00;12.80;;;;;;;11.63;94.13;98491.03;4993169;28;20199;-78
2023/09/27 05:31:40;;;;;;;14.13;13.02;;;;;;;11.66;94.15;98495.22;4992864;28;20321;-78
2023/09/27 05:34:07;;;;;;;13.70;12.35;;;;;;;11.76;93.63;98487.53;4983549;28;20238;-72
2023/09/27 05:36:34;;;;;;;12.80;11.70;;;;;;;11.85;93.48;98480.97;4990050;28;20214;-72
2023/09/27 05:39:02;;;;;;;15.20;13.95;;;;;;;11.94;94.04;98481.66;4979390;28;20208;-74
2023/09/27 05:41:30;;;;;;;13.17;12.13;;;;;;;11.97;93.55;98482.09;4989600;28;20602;-82
2023/09/27 05:43:56;;;;;;;15.00;13.80;;;;;;;11.76;94.80;98476.69;4989624;28;20838;-82
2023/09/27 05:46:24;;;;;;;15.50;14.30;;;;;;;11.83;94.70;98474.06;4988623;28;20338;-76
2023/09/27 05:48:50;;;;;;;14.20;13.10;;;;;;;12.21;93.34;98479.91;4985566;28;20238;-75
2023/09/27 05:51:17;;;;;;;13.52;12.43;;;;;;;12.45;91.86;98473.94;4989832;28;20231;-75
2023/09/27 05:53:46;;;;;;;12.67;11.67;;;;;;;12.73;89.94;98466.50;4982275;28;20234;-75
2023/09/27 05:56:13;;;;;;;12.00;11.00;;;;;;;13.02;88.42;98475.34;4989581;28;20461;-75
2023/09/27 05:58:41;;;;;;;10.50;9.63;;;;;;;13.51;85.30;98471.44;4990154;28;20532;-75
2023/09/27 06:01:09;;;;;;;10.97;9.97;;;;;;;13.48;84.69;98469.13;4987317;28;20516;-75
2023/09/27 06:03:38;;;;;;;9.40;8.60;;;;;;;13.37;83.50;98474.13;4988682;28;20471;-75
2023/09/27 06:06:04;;;;;;;9.47;8.40;;;;;;;13.67;82.77;98477.25;4988261;28;21030;-75
2023/09/27 06:08:31;;;;;;;9.90;9.00;;;;;;;13.62;82.54;98476.25;4988724;28;20487;-75
2023/09/27 06:10:59;;;;;;;9.63;8.83;;;;;;;13.76;82.32;98488.75;4991046;28;20469;-75
2023/09/27 06:13:26;;;;;;;11.00;9.90;;;;;;;14.11;80.83;98487.44;4988642;28;20540;-75
2023/09/27 06:15:55;;;;;;;9.27;8.50;;;;;;;14.32;79.30;98482.75;4986948;28;20467;-76
2023/09/27 06:18:22;;;;;;;9.40;8.70;;;;;;;14.37;78.53;98481.06;4988393;28;20578;-76
2023/09/27 06:20:49;;;;;;;10.27;9.37;;;;;;;14.37;78.79;98482.94;4983356;28;20477;-74
2023/09/27 06:23:15;;;;;;;9.60;8.80;;;;;;;14.39;78.30;98489.00;4987748;28;20465;-76
2023/09/27 06:25:43;;;;;;;9.13;8.20;;;;;;;14.48;78.23;98493.19;4988208;28;20468;-76
2023/09/27 06:28:11;;;;;;;9.57;8.57;;;;;;;14.77;77.05;98487.19;4989377;28;20466;-76
2023/09/27 06:30:38;;;;;;;10.30;9.43;;;;;;;14.73;76.93;98496.00;4989255;28;21082;-76
2023/09/27 06:33:08;;;;;;;9.80;8.90;;;;;;;14.87;76.59;98492.19;4989566;28;20452;-75
2023/09/27 06:35:36;;;;;;;9.40;8.60;;;;;;;15.29;74.57;98485.16;4988743;28;20576;-76
2023/09/27 06:38:05;;;;;;;9.23;8.53;;;;;;;15.33;73.38;98453.66;4990631;28;20605;-76
2023/09/27 06:40:32;;;;;;;10.87;8.53;;;;;;;15.67;72.99;98503.34;4989186;28;20513;-76
2023/09/27 06:42:59;;;;;;;10.03;9.23;;;;;;;15.50;73.71;98497.59;4990607;28;20466;-76
2023/09/27 06:45:27;;;;;;;9.97;9.07;;;;;;;15.56;73.16;98499.47;4990672;28;20460;-76
2023/09/27 06:47:53;;;;;;;10.50;9.60;;;;;;;15.24;74.90;98497.81;4990030;28;20454;-76
2023/09/27 06:50:22;;;;;;;10.73;9.60;;;;;;;14.94;76.33;98500.31;4941094;28;1417725;-76
2023/09/27 06:52:49;;;;;;;10.03;9.27;;;;;;;15.22;75.45;98489.00;4991545;28;20473;-76
2023/09/27 06:55:18;;;;;;;9.60;8.80;;;;;;;15.44;74.96;98493.03;4989778;28;21016;-76
2023/09/27 06:57:46;;;;;;;8.57;7.90;;;;;;;15.89;73.31;98496.44;4991053;28;20466;-76
2023/09/27 07:00:18;;;;;;;10.23;9.33;;;;;;;15.83;73.18;98493.78;4991485;28;20533;-77
2023/09/27 07:02:47;;;;;;;9.93;9.13;;;;;;;16.29;71.40;98490.53;4990797;28;20834;-76
2023/09/27 07:05:14;;;;;;;9.20;8.40;;;;;;;16.30;70.93;98489.47;4990780;28;20473;-76
2023/09/27 07:07:42;;;;;;;9.40;8.07;;;;;;;16.20;71.22;98492.75;4990642;28;20541;-77
2023/09/27 07:10:09;;;;;;;8.93;8.23;;;;;;;16.80;69.50;98490.16;4990569;28;20466;-77
2023/09/27 07:12:37;;;;;;;9.17;8.30;;;;;;;16.83;69.16;98497.91;4991292;28;20497;-77
2023/09/27 07:15:08;;;;;;;9.53;8.73;;;;;;;17.14;67.77;98499.56;4990759;28;20580;-77
2023/09/27 07:17:34;;;;;;;8.83;7.93;;;;;;;17.54;66.19;98494.31;4990326;28;21122;-77
2023/09/27 07:20:02;;;;;;;9.27;8.37;;;;;;;17.89;65.01;98502.56;4989779;28;20544;-77
2023/09/27 07:22:31;;;;;;;12.73;9.20;;;;;;;17.76;65.63;98491.88;4989862;28;20466;-76
2023/09/27 07:24:59;;;;;;;9.03;8.00;;;;;;;17.97;65.17;98501.38;4990299;28;20540;-77
2023/09/27 07:27:26;;;;;;;9.03;8.23;;;;;;;18.11;64.85;98495.44;4989787;28;20485;-77
2023/09/27 07:29:53;;;;;;;11.80;9.80;;;;;;;17.91;64.50;98497.69;4990729;28;20482;-76
2023/09/27 07:32:19;;;;;;;9.20;8.30;;;;;;;18.07;65.18;98496.97;4990879;28;20460;-77
2023/09/27 07:34:47;;;;;;;9.13;8.27;;;;;;;18.16;63.53;98491.16;4990803;28;20868;-77
2023/09/27 07:37:14;;;;;;;8.20;7.40;;;;;;;18.38;63.65;98495.75;4990539;28;20497;-77
2023/09/27 07:39:41;;;;;;;8.73;7.90;;;;;;;18.39;63.32;98496.59;4990063;28;20535;-76
2023/09/27 07:42:12;;;;;;;8.20;7.60;;;;;;;18.76;62.75;98487.00;4989875;28;20482;-77
2023/09/27 07:44:39;;;;;;;9.03;8.20;;;;;;;18.80;60.94;98492.81;4989752;28;20459;-77
2023/09/27 07:47:06;;;;;;;7.53;6.97;;;;;;;19.08;61.35;98486.50;4990447;28;20483;-77
2023/09/27 07:49:34;;;;;;;7.37;6.83;;;;;;;19.72;58.68;98484.34;4989890;28;20447;-77
2023/09/27 07:52:00;;;;;;;7.80;6.60;;;;;;;19.85;58.48;98488.66;4989264;28;20485;-77
2023/09/27 07:54:27;;;;;;;6.53;6.03;;;;;;;20.23;57.17;98487.84;4990540;28;20579;-77
2023/09/27 07:56:54;;;;;;;7.57;6.70;;;;;;;19.98;57.85;98491.06;4990196;28;21006;-77
2023/09/27 07:59:22;;;;;;;6.60;6.03;;;;;;;20.05;58.54;98489.81;4990257;28;20453;-77
2023/09/27 08:01:49;;;;;;;6.20;5.67;;;;;;;20.73;56.40;98485.81;4990269;28;20481;-77
2023/09/27 08:04:16;;;;;;;6.77;6.27;;;;;;;21.19;53.73;98478.06;4989861;28;20560;-77
2023/09/27 08:06:45;;;;;;;5.07;4.67;;;;;;;20.54;55.64;98492.72;4988996;28;20470;-77
2023/09/27 08:09:13;;;;;;;5.77;5.37;;;;;;;20.51;56.20;98479.47;4989812;28;20483;-78
2023/09/27 08:11:40;;;;;;;5.77;5.37;;;;;;;20.63;55.78;98474.69;4990460;28;20556;-77
2023/09/27 08:14:08;;;;;;;5.73;5.30;;;;;;;20.80;56.10;98469.91;4990277;28;20453;-78
2023/09/27 08:16:36;;;;;;;7.87;5.60;;;;;;;20.94;55.39;98469.53;4988509;28;20874;-78
2023/09/27 08:19:03;;;;;;;6.00;5.60;;;;;;;21.78;54.05;98469.78;4989593;28;20942;-78
2023/09/27 08:21:30;;;;;;;6.00;5.50;;;;;;;20.88;56.10;98470.56;4989131;28;20556;-78
2023/09/27 08:23:57;;;;;;;6.30;5.80;;;;;;;21.29;54.28;98469.94;4990277;28;20461;-78
2023/09/27 08:26:25;;;;;;;6.37;5.87;;;;;;;21.13;54.81;98468.06;4990313;28;20438;-78
2023/09/27 08:28:52;;;;;;;6.73;6.23;;;;;;;21.35;54.65;98463.38;4989018;28;20540;-78
2023/09/27 08:31:19;;;;;;;10.13;6.80;;;;;;;21.18;55.10;98459.88;4989674;28;20505;-78
2023/09/27 08:33:48;;;;;;;6.57;6.07;;;;;;;20.92;55.57;98457.94;4988731;28;20561;-77
2023/09/27 08:36:15;;;;;;;6.30;5.80;;;;;;;21.66;54.75;98458.97;4989211;28;20595;-77
2023/09/27 08:38:41;;;;;;;6.30;5.80;;;;;;;22.61;50.91;98448.81;4989161;28;21378;-78
2023/09/27 08:41:08;;;;;;;5.90;5.40;;;;;;;22.30;51.91;98458.03;4990583;28;20466;-78
2023/09/27 08:43:35;;;;;;;6.20;5.70;;;;;;;22.11;52.91;98458.47;4989441;28;20482;-78
2023/09/27 08:46:03;;;;;;;6.50;5.47;;;;;;;23.10;50.87;98454.78;4990071;28;20462;-78
2023/09/27 08:48:30;;;;;;;7.90;6.23;;;;;;;23.66;48.64;98452.13;4988478;28;20854;-78
2023/09/27 08:51:03;;;;;;;5.67;5.27;;;;;;;24.01;48.39;98444.88;4989490;28;20509;-78
2023/09/27 08:53:32;;;;;;;7.60;6.80;;;;;;;24.60;45.75;98438.66;4989753;28;20464;-78
2023/09/27 08:56:01;;;;;;;6.57;5.97;;;;;;;24.83;45.69;98443.50;4989568;28;20600;-78
2023/09/27 08:58:29;;;;;;;5.70;5.20;;;;;;;25.02;44.78;98436.22;4989191;28;21037;-78
2023/09/27 09:00:56;;;;;;;6.30;5.50;;;;;;;24.97;44.15;98422.44;4989515;28;20568;-78
2023/09/27 09:03:23;;;;;;;6.10;5.60;;;;;;;24.82;45.29;98433.56;4988897;28;20482;-78
2023/09/27 09:05:51;;;;;;;6.27;5.77;;;;;;;24.93;45.10;98431.56;4989202;28;21083;-78
2023/09/27 09:08:19;;;;;;;6.20;5.70;;;;;;;25.09;44.95;98420.13;4988608;28;20549;-78
2023/09/27 09:10:46;;;;;;;5.10;4.70;;;;;;;25.60;43.72;98424.47;4989545;28;20496;-79
2023/09/27 09:13:13;;;;;;;5.70;5.10;;;;;;;25.53;43.61;98412.88;4989722;28;20479;-79
2023/09/27 09:15:41;;;;;;;4.27;3.97;;;;;;;26.18;42.51;98416.16;4989597;28;20632;-79
2023/09/27 09:18:12;;;;;;;4.80;4.30;;;;;;;26.16;42.02;98407.31;4987641;28;20537;-78
2023/09/27 09:20:50;;;;;;;4.40;4.10;;;;;;;25.69;41.69;98411.63;4989778;28;20552;-79
2023/09/27 09:23:34;;;;;;;4.53;3.97;;;;;;;25.42;42.34;98407.41;4989211;28;21014;-79
2023/09/27 09:26:02;;;;;;;3.90;3.60;;;;;;;25.23;43.13;98412.00;4989216;28;20532;-79
2023/09/27 09:28:30;;;;;;;3.80;3.30;;;;;;;24.94;43.32;98414.66;4988614;28;20602;-79
2023/09/27 09:30:56;;;;;;;4.07;3.77;;;;;;;24.49;44.64;98399.09;4988630;28;21002;-79
2023/09/27 09:33:24;;;;;;;3.60;3.30;;;;;;;24.52;44.29;98400.47;4989625;28;20446;-79
2023/09/27 09:35:51;;;;;;;3.93;3.53;;;;;;;24.67;44.83;98386.56;4989387;28;20489;-79
2023/09/27 09:38:26;;;;;;;3.10;2.90;;;;;;;25.87;42.98;98385.97;4989113;28;20525;-79
2023/09/27 09:40:55;;;;;;;4.50;3.70;;;;;;;25.97;41.42;98402.50;4988192;28;21082;-79
2023/09/27 09:43:33;;;;;;;5.77;3.90;;;;;;;24.93;43.94;98387.25;4989574;28;20470;-79
2023/09/27 09:46:00;;;;;;;4.17;3.87;;;;;;;25.71;42.49;98390.00;4992398;28;20465;-79
2023/09/27 09:48:27;;;;;;;3.70;3.40;;;;;;;26.54;40.88;98381.31;4992351;28;20454;-79
2023/09/27 09:51:02;;;;;;;4.50;3.63;;;;;;;26.68;40.42;98382.22;4990309;28;20570;-79
2023/09/27 09:53:30;;;;;;;4.40;3.50;;;;;;;27.20;39.46;98376.81;4992805;28;20449;-79
2023/09/27 09:56:01;;;;;;;3.77;3.47;;;;;;;27.60;39.06;98372.56;4993065;28;20509;-79
2023/09/27 09:58:33;;;;;;;4.17;3.83;;;;;;;27.20;39.47;98374.84;4992321;28;20450;-79
2023/09/27 10:01:03;;;;;;;4.53;4.13;;;;;;;26.95;39.16;98372.44;4992742;28;20458;-79
2023/09/27 10:03:32;;;;;;;4.47;4.10;;;;;;;27.00;39.50;98370.41;4991960;28;20909;-79
2023/09/27 10:06:01;;;;;;;3.87;3.57;;;;;;;27.43;39.01;98354.44;4992556;28;20446;-79
2023/09/27 10:08:33;;;;;;;2.90;2.70;;;;;;;27.54;38.91;98357.06;4992387;28;20464;-80
2023/09/27 10:11:03;;;;;;;3.70;3.50;;;;;;;28.25;36.82;98366.91;4993155;28;20557;-80
2023/09/27 10:13:33;;;;;;;3.90;3.60;;;;;;;27.41;38.09;98358.66;4992773;28;20462;-78
2023/09/27 10:16:00;;;;;;;3.87;3.50;;;;;;;26.99;39.65;98359.59;4992593;28;20596;-80
2023/09/27 10:18:36;;;;;;;3.63;3.33;;;;;;;27.39;39.29;98350.59;4990683;28;20485;-79
2023/09/27 10:21:09;;;;;;;3.70;3.40;;;;;;;27.55;38.42;98350.34;4992559;28;20457;-79
2023/09/27 10:23:36;;;;;;;3.40;3.20;;;;;;;27.33;39.08;98346.25;4992245;28;20528;-79
2023/09/27 10:26:18;;;;;;;3.77;3.47;;;;;;;27.52;38.57;98348.19;4992091;28;20481;-79
2023/09/27 10:29:15;;;;;;;4.13;3.70;;;;;;;28.19;36.95;98335.53;4991907;28;20442;-79
2023/09/27 10:32:22;;;;;;;3.97;3.20;;;;;;;27.69;37.75;98332.59;4991540;28;20982;-80
2023/09/27 10:34:51;;;;;;;4.03;3.73;;;;;;;27.65;38.52;98327.94;4991764;28;20880;-80
2023/09/27 10:37:52;;;;;;;3.10;2.80;;;;;;;27.30;39.26;98324.63;4991053;28;20542;-79
2023/09/27 10:40:20;;;;;;;3.27;3.00;;;;;;;27.59;39.09;98326.41;4991750;28;20524;-80
2023/09/27 10:42:49;;;;;;;3.20;2.90;;;;;;;27.84;37.38;98325.91;4991854;28;20525;-79
2023/09/27 10:45:16;;;;;;;2.90;2.70;;;;;;;28.07;37.19;98316.53;4990918;28;20552;-79
2023/09/27 10:47:43;;;;;;;2.70;2.50;;;;;;;27.43;37.41;98321.06;4989016;28;20482;-80
2023/09/27 10:50:11;;;;;;;2.80;2.60;;;;;;;27.90;37.70;98316.34;4991982;28;20952;-79
2023/09/27 10:52:39;;;;;;;2.33;2.20;;;;;;;28.30;36.01;98319.44;4992394;28;20449;-80
2023/09/27 10:55:10;;;;;;;2.70;2.50;;;;;;;28.22;36.27;98317.41;4991228;28;20508;-79
2023/09/27 10:57:40;;;;;;;2.87;2.67;;;;;;;28.37;34.93;98319.84;4991246;28;20438;-80
2023/09/27 11:00:12;;;;;;;2.43;2.33;;;;;;;28.83;34.96;98311.31;4990807;28;20481;-79
2023/09/27 11:02:39;;;;;;;2.73;2.53;;;;;;;29.22;34.32;98305.06;4989128;28;20980;-79
2023/09/27 11:05:06;;;;;;;4.00;2.47;;;;;;;29.26;33.55;98308.84;4991267;28;21115;-80
2023/09/27 11:07:43;;;;;;;2.60;2.27;;;;;;;28.71;33.77;98311.84;4991548;28;20489;-80
2023/09/27 11:10:10;;;;;;;2.70;2.17;;;;;;;28.93;34.63;98310.25;4991568;28;20462;-79
2023/09/27 11:12:37;;;;;;;2.63;2.43;;;;;;;29.77;32.17;98306.72;4991074;28;20519;-80
2023/09/27 11:15:05;;;;;;;2.93;2.63;;;;;;;30.42;31.27;98301.25;4991215;28;20899;-80
2023/09/27 11:17:34;;;;;;;4.30;2.70;;;;;;;31.08;30.29;98313.16;4989071;28;20980;-80
2023/09/27 11:20:11;;;;;;;2.40;2.20;;;;;;;29.75;29.86;98304.25;4991203;28;20834;-80
2023/09/27 11:22:38;;;;;;;3.10;2.37;;;;;;;29.52;31.12;98299.88;4991428;28;20508;-80
2023/09/27 11:25:05;;;;;;;2.80;2.60;;;;;;;29.67;31.27;98307.81;4989624;28;20537;-80
2023/09/27 11:27:32;;;;;;;3.00;2.77;;;;;;;30.30;29.81;98292.66;4988680;28;20804;-80
2023/09/27 11:29:59;;;;;;;2.50;2.30;;;;;;;31.54;27.32;98275.25;4991226;28;20462;-80